Time;durP1;ratioP1;P1;durP2;ratioP2;P2;SDS_P1;SDS_P2;PMS_P1;PMS_P2;Temp;Humidity;BMP_temperature;BMP_pressure;BME280_temperature;BME280_humidity;BME280_pressure;Samples;Min_cycle;Max_cycle;Signal;HPM_P1;HPM_P2
2023/08/27 00:01:03;;;;;;;11.57;4.70;;;;;;;;;;5084658;28;20032;-92
2023/08/27 00:03:50;;;;;;;5.65;4.22;;;;;;;;;;5074677;28;20146;-92
2023/08/27 00:06:39;;;;;;;8.65;4.40;;;;;;;;;;5075020;28;20025;-93
2023/08/27 00:09:07;;;;;;;6.30;4.68;;;;;;;;;;5092891;28;20050;-92
2023/08/27 00:11:33;;;;;;;9.38;4.68;;;;;;;;;;5093947;28;20046;-92
2023/08/27 00:13:59;;;;;;;7.95;4.28;;;;;;;;;;5073929;28;20035;-91
2023/08/27 00:16:25;;;;;;;8.07;4.40;;;;;;;;;;5083590;28;20016;-89
2023/08/27 00:18:51;;;;;;;9.35;4.00;;;;;;;;;;5111943;27;20042;-93
2023/08/27 00:21:18;;;;;;;8.20;4.47;;;;;;;;;;5093848;28;20426;-92
2023/08/27 00:23:47;;;;;;;8.23;4.07;;;;;;;;;;5094285;28;20044;-93
2023/08/27 00:26:13;;;;;;;5.23;3.80;;;;;;;;;;5092174;28;20024;-91
2023/08/27 00:28:39;;;;;;;9.77;4.63;;;;;;;;;;5110457;28;20055;-93
2023/08/27 00:31:05;;;;;;;9.38;4.20;;;;;;;;;;5085490;28;20104;-91
2023/08/27 00:33:31;;;;;;;6.22;4.32;;;;;;;;;;5077107;28;20024;-91
2023/08/27 00:35:57;;;;;;;6.53;4.00;;;;;;;;;;5110181;28;20380;-93
2023/08/27 00:38:23;;;;;;;6.53;3.97;;;;;;;;;;5075654;28;20032;-90
2023/08/27 00:40:49;;;;;;;6.68;4.07;;;;;;;;;;5108787;28;20016;-94
2023/08/27 00:43:15;;;;;;;8.00;4.20;;;;;;;;;;5111261;28;20032;-92
2023/08/27 00:45:42;;;;;;;4.90;3.75;;;;;;;;;;5107216;28;20111;-92
2023/08/27 00:48:08;;;;;;;7.78;3.92;;;;;;;;;;5109287;28;20111;-92
2023/08/27 00:50:34;;;;;;;6.00;4.47;;;;;;;;;;5092256;28;20081;-93
2023/08/27 00:53:00;;;;;;;8.73;3.72;;;;;;;;;;5090886;28;20020;-92
2023/08/27 00:55:26;;;;;;;7.68;3.90;;;;;;;;;;5092877;28;20130;-92
2023/08/27 00:57:52;;;;;;;6.63;3.50;;;;;;;;;;5075083;28;20051;-91
2023/08/27 01:00:20;;;;;;;6.18;3.88;;;;;;;;;;5109599;28;20058;-91
2023/08/27 01:02:48;;;;;;;10.02;4.15;;;;;;;;;;5110010;28;20028;-93
2023/08/27 01:05:14;;;;;;;6.78;3.60;;;;;;;;;;5073446;28;20388;-91
2023/08/27 01:07:47;;;;;;;6.75;3.67;;;;;;;;;;5083312;28;20029;-93
2023/08/27 01:10:27;;;;;;;4.75;3.33;;;;;;;;;;5074503;28;20035;-92
2023/08/27 01:12:53;;;;;;;8.95;3.78;;;;;;;;;;5092583;28;20020;-92
2023/08/27 01:15:21;;;;;;;5.28;4.18;;;;;;;;;;5108639;28;20070;-92
2023/08/27 01:17:48;;;;;;;8.85;3.80;;;;;;;;;;5092300;28;20044;-93
2023/08/27 01:20:14;;;;;;;5.22;3.40;;;;;;;;;;5090309;28;20064;-93
2023/08/27 01:22:40;;;;;;;6.57;3.92;;;;;;;;;;5095439;28;20020;-94
2023/08/27 01:25:10;;;;;;;6.38;4.05;;;;;;;;;;5085598;28;20065;-92
2023/08/27 01:27:52;;;;;;;10.38;4.10;;;;;;;;;;5113345;28;20086;-93
2023/08/27 01:30:27;;;;;;;7.72;4.38;;;;;;;;;;5097252;28;20084;-93
2023/08/27 01:33:20;;;;;;;;;;;;;;;;;;;;;
2023/08/27 01:36:21;;;;;;;;;;;;;;;;;;;;;
2023/08/27 01:39:10;;;;;;;17.67;4.78;;;;;;;;;;5099497;28;20107;-94
2023/08/27 01:42:23;;;;;;;;;;;;;;;;;;;;;
2023/08/27 02:00:54;;;;;;;7.25;4.05;;;;;;;;;;4980544;28;20111;-94
2023/08/27 02:06:50;;;;;;;9.05;4.03;;;;;;;;;;4980942;28;20130;-95
2023/08/27 02:32:01;;;;;;;7.78;4.28;;;;;;;;;;4880841;29;20093;-96
2023/08/27 02:37:49;;;;;;;5.40;3.67;;;;;;;;;;4899550;29;20035;-94
2023/08/27 02:40:17;;;;;;;7.53;4.30;;;;;;;;;;4911456;29;20069;-96
2023/08/27 02:42:44;;;;;;;7.75;3.80;;;;;;;;;;4898830;29;20040;-94
2023/08/27 02:45:10;;;;;;;4.32;3.55;;;;;;;;;;4916600;29;20177;-95
2023/08/27 02:47:36;;;;;;;8.93;4.00;;;;;;;;;;4916435;29;20407;-93
2023/08/27 02:50:03;;;;;;;11.15;5.35;;;;;;;;;;4898707;29;20020;-93
2023/08/27 02:52:29;;;;;;;8.40;5.80;;;;;;;;;;4918234;29;20114;-91
2023/08/27 02:54:55;;;;;;;12.07;6.78;;;;;;;;;;4973332;28;20030;-91
2023/08/27 02:57:21;;;;;;;10.98;6.13;;;;;;;;;;5000135;28;20029;-91
2023/08/27 02:59:47;;;;;;;10.88;6.15;;;;;;;;;;5004199;28;20023;-92
2023/08/27 03:02:13;;;;;;;12.35;5.90;;;;;;;;;;5088268;28;20028;-93
2023/08/27 03:04:39;;;;;;;8.05;5.68;;;;;;;;;;5103322;28;20027;-93
2023/08/27 03:07:05;;;;;;;11.63;7.05;;;;;;;;;;5102020;28;20107;-91
2023/08/27 03:09:31;;;;;;;9.32;6.13;;;;;;;;;;5102375;28;20487;-92
2023/08/27 03:11:57;;;;;;;13.63;6.28;;;;;;;;;;5100263;28;20051;-91
2023/08/27 03:14:23;;;;;;;13.02;5.80;;;;;;;;;;5075736;28;20469;-90
2023/08/27 03:16:49;;;;;;;12.05;5.90;;;;;;;;;;5104750;27;20110;-91
2023/08/27 03:19:15;;;;;;;10.43;6.00;;;;;;;;;;5077613;28;20536;-92
2023/08/27 03:21:41;;;;;;;9.00;5.50;;;;;;;;;;5103150;28;20077;-92
2023/08/27 03:24:07;;;;;;;8.70;5.00;;;;;;;;;;5117121;27;20472;-91
2023/08/27 03:26:33;;;;;;;8.45;5.25;;;;;;;;;;5101427;28;20031;-92
2023/08/27 03:28:59;;;;;;;8.35;5.07;;;;;;;;;;5087603;28;20047;-91
2023/08/27 03:31:25;;;;;;;10.43;4.72;;;;;;;;;;5067447;28;20467;-91
2023/08/27 03:33:51;;;;;;;9.43;5.38;;;;;;;;;;5088527;28;20059;-91
2023/08/27 03:36:17;;;;;;;10.50;4.95;;;;;;;;;;5068364;28;20023;-91
2023/08/27 03:38:43;;;;;;;6.97;4.60;;;;;;;;;;5104423;27;20020;-92
2023/08/27 03:41:09;;;;;;;6.78;4.50;;;;;;;;;;5086187;28;20385;-92
2023/08/27 03:43:35;;;;;;;7.03;4.38;;;;;;;;;;5092300;28;20020;-91
2023/08/27 03:46:02;;;;;;;7.05;4.50;;;;;;;;;;5071228;28;20068;-92
2023/08/27 03:48:28;;;;;;;7.10;4.88;;;;;;;;;;5101739;28;20058;-91
2023/08/27 03:50:54;;;;;;;8.93;4.75;;;;;;;;;;5098922;28;20028;-92
2023/08/27 03:53:20;;;;;;;9.05;4.88;;;;;;;;;;5074183;28;20483;-92
2023/08/27 03:55:46;;;;;;;11.40;4.82;;;;;;;;;;5100566;28;20111;-92
2023/08/27 03:58:12;;;;;;;7.03;4.60;;;;;;;;;;5066349;28;20028;-92
2023/08/27 04:00:38;;;;;;;7.22;5.13;;;;;;;;;;5066245;28;20020;-92
2023/08/27 04:03:05;;;;;;;8.73;4.40;;;;;;;;;;5068304;28;20035;-93
2023/08/27 04:05:31;;;;;;;6.47;4.57;;;;;;;;;;5068648;28;20032;-92
2023/08/27 04:07:57;;;;;;;5.35;3.97;;;;;;;;;;5088854;28;20103;-91
2023/08/27 04:10:23;;;;;;;9.07;4.75;;;;;;;;;;5101862;28;20030;-93
2023/08/27 04:12:49;;;;;;;7.18;4.80;;;;;;;;;;5103024;28;20024;-91
2023/08/27 04:15:16;;;;;;;10.82;4.68;;;;;;;;;;5100641;28;20027;-90
2023/08/27 04:17:41;;;;;;;10.20;4.72;;;;;;;;;;5105032;27;20020;-87
2023/08/27 04:20:08;;;;;;;9.57;4.80;;;;;;;;;;5075155;28;20024;-88
2023/08/27 04:22:34;;;;;;;7.28;5.10;;;;;;;;;;5100372;28;20059;-89
2023/08/27 04:25:00;;;;;;;9.63;6.15;;;;;;;;;;5067370;28;20035;-88
2023/08/27 04:27:26;;;;;;;8.88;6.38;;;;;;;;;;5105034;28;20528;-88
2023/08/27 04:29:55;;;;;;;9.68;6.43;;;;;;;;;;5065220;28;20032;-89
2023/08/27 04:32:21;;;;;;;10.43;6.67;;;;;;;;;;5067263;28;20031;-89
2023/08/27 04:34:47;;;;;;;10.77;6.47;;;;;;;;;;5064608;28;20469;-89
2023/08/27 04:37:13;;;;;;;12.63;6.63;;;;;;;;;;5101415;28;20020;-90
2023/08/27 04:39:39;;;;;;;11.52;6.60;;;;;;;;;;5081123;28;20466;-91
2023/08/27 04:42:05;;;;;;;8.63;6.03;;;;;;;;;;5098268;28;20073;-92
2023/08/27 04:44:31;;;;;;;10.63;5.82;;;;;;;;;;5101974;28;20040;-91
2023/08/27 04:46:57;;;;;;;8.30;6.05;;;;;;;;;;5101171;28;20032;-91
2023/08/27 04:49:23;;;;;;;9.90;5.47;;;;;;;;;;5064289;28;20025;-91
2023/08/27 04:51:49;;;;;;;9.93;5.95;;;;;;;;;;5105760;28;20035;-92
2023/08/27 04:54:15;;;;;;;9.88;6.28;;;;;;;;;;5066061;28;20032;-90
2023/08/27 04:56:41;;;;;;;11.65;5.10;;;;;;;;;;5101407;28;20021;-92
2023/08/27 04:59:07;;;;;;;10.20;5.35;;;;;;;;;;5104199;28;20030;-92
2023/08/27 05:01:33;;;;;;;11.07;5.72;;;;;;;;;;5069873;28;20028;-90
2023/08/27 05:03:59;;;;;;;12.00;6.65;;;;;;;;;;5065269;28;20095;-94
2023/08/27 05:06:25;;;;;;;9.68;5.88;;;;;;;;;;5076086;28;20392;-92
2023/08/27 05:08:51;;;;;;;11.73;6.20;;;;;;;;;;5066183;28;20029;-93
2023/08/27 05:11:17;;;;;;;12.65;7.35;;;;;;;;;;5067732;28;20028;-92
2023/08/27 05:13:43;;;;;;;14.25;7.63;;;;;;;;;;5105559;28;20472;-92
2023/08/27 05:16:09;;;;;;;14.45;7.40;;;;;;;;;;5070051;28;20016;-92
2023/08/27 05:18:35;;;;;;;12.45;7.75;;;;;;;;;;5093575;28;20063;-90
2023/08/27 05:21:01;;;;;;;14.23;8.18;;;;;;;;;;5071630;28;20054;-88
2023/08/27 05:23:27;;;;;;;14.63;7.95;;;;;;;;;;5067984;28;20021;-90
2023/08/27 05:25:53;;;;;;;12.55;6.15;;;;;;;;;;5105062;28;20392;-86
2023/08/27 05:28:19;;;;;;;12.82;6.70;;;;;;;;;;5071250;28;20020;-89
2023/08/27 05:30:45;;;;;;;11.68;7.05;;;;;;;;;;5085454;28;20031;-92
2023/08/27 05:33:11;;;;;;;12.27;7.93;;;;;;;;;;5105246;28;20496;-93
2023/08/27 05:35:37;;;;;;;15.35;7.22;;;;;;;;;;5104946;28;20028;-92
2023/08/27 05:38:04;;;;;;;13.80;6.20;;;;;;;;;;5067671;28;20026;-92
2023/08/27 05:40:30;;;;;;;15.07;7.03;;;;;;;;;;5067199;28;20029;-91
2023/08/27 05:42:56;;;;;;;11.80;6.35;;;;;;;;;;5075446;28;20035;-92
2023/08/27 05:45:22;;;;;;;10.43;5.95;;;;;;;;;;5071234;28;20032;-92
2023/08/27 05:47:48;;;;;;;10.40;5.50;;;;;;;;;;5085636;28;20017;-91
2023/08/27 05:50:14;;;;;;;7.10;3.97;;;;;;;;;;5068095;28;20035;-92
2023/08/27 05:52:40;;;;;;;6.97;4.68;;;;;;;;;;5072910;28;20028;-91
2023/08/27 05:55:07;;;;;;;7.00;4.07;;;;;;;;;;5101214;28;20021;-91
2023/08/27 05:57:34;;;;;;;5.45;3.50;;;;;;;;;;5070104;28;20024;-90
2023/08/27 06:00:00;;;;;;;4.53;3.17;;;;;;;;;;5066807;28;20030;-90
2023/08/27 06:02:26;;;;;;;7.18;3.08;;;;;;;;;;5073677;28;20182;-90
2023/08/27 06:04:52;;;;;;;4.50;2.80;;;;;;;;;;5070353;28;20031;-90
2023/08/27 06:07:18;;;;;;;4.35;2.85;;;;;;;;;;5101121;28;20035;-91
2023/08/27 06:09:44;;;;;;;4.65;2.55;;;;;;;;;;5072650;28;20391;-92
2023/08/27 06:12:10;;;;;;;4.32;2.05;;;;;;;;;;5100923;28;20124;-92
2023/08/27 06:14:36;;;;;;;3.42;2.30;;;;;;;;;;5088193;28;20031;-91
2023/08/27 06:17:02;;;;;;;7.40;2.35;;;;;;;;;;5101025;28;20025;-93
2023/08/27 06:19:29;;;;;;;3.20;2.40;;;;;;;;;;5068416;28;20020;-92
2023/08/27 06:21:56;;;;;;;4.32;1.83;;;;;;;;;;5064465;28;20023;-95
2023/08/27 06:24:22;;;;;;;6.30;2.15;;;;;;;;;;5085336;28;20396;-94
2023/08/27 06:26:48;;;;;;;3.15;2.10;;;;;;;;;;5075376;28;20028;-95
2023/08/27 06:29:14;;;;;;;3.83;1.98;;;;;;;;;;5067909;28;20496;-95
2023/08/27 06:31:43;;;;;;;2.28;2.03;;;;;;;;;;5078560;28;20055;-95
2023/08/27 06:34:09;;;;;;;5.88;2.00;;;;;;;;;;5089630;28;20032;-93
2023/08/27 06:36:36;;;;;;;6.72;2.70;;;;;;;;;;5069158;28;20032;-94
2023/08/27 06:39:02;;;;;;;4.07;1.95;;;;;;;;;;5091034;28;20016;-94
2023/08/27 06:41:28;;;;;;;3.17;1.60;;;;;;;;;;5068754;28;20074;-95
2023/08/27 06:43:54;;;;;;;2.47;1.60;;;;;;;;;;5069834;28;20119;-90
2023/08/27 06:46:23;;;;;;;2.90;1.85;;;;;;;;;;5071378;28;20020;-96
2023/08/27 06:48:49;;;;;;;3.30;1.80;;;;;;;;;;5069243;28;20043;-91
2023/08/27 06:51:15;;;;;;;7.07;1.60;;;;;;;;;;5070843;28;20031;-93
2023/08/27 06:53:41;;;;;;;2.67;1.38;;;;;;;;;;5068685;28;20028;-95
2023/08/27 06:56:08;;;;;;;3.00;2.03;;;;;;;;;;5067277;28;20115;-88
2023/08/27 06:58:33;;;;;;;2.45;1.77;;;;;;;;;;5069525;28;20746;-90
2023/08/27 07:01:04;;;;;;;2.10;1.67;;;;;;;;;;5067638;28;20024;-93
2023/08/27 07:03:30;;;;;;;2.85;1.48;;;;;;;;;;5069249;28;20024;-92
2023/08/27 07:05:56;;;;;;;2.35;1.55;;;;;;;;;;5066923;28;20052;-89
2023/08/27 07:08:22;;;;;;;2.95;1.60;;;;;;;;;;5068891;28;20020;-91
2023/08/27 07:10:48;;;;;;;3.95;1.98;;;;;;;;;;5069714;28;20021;-91
2023/08/27 07:13:14;;;;;;;2.90;1.50;;;;;;;;;;5068635;28;20101;-91
2023/08/27 07:15:40;;;;;;;3.88;1.92;;;;;;;;;;5077426;28;20016;-91
2023/08/27 07:18:06;;;;;;;4.00;1.92;;;;;;;;;;5085447;28;20375;-93
2023/08/27 07:20:34;;;;;;;2.15;1.35;;;;;;;;;;5066052;28;20039;-91
2023/08/27 07:23:00;;;;;;;4.70;1.70;;;;;;;;;;5086599;28;20028;-90
2023/08/27 07:25:26;;;;;;;2.17;1.60;;;;;;;;;;5068800;28;20024;-91
2023/08/27 07:27:52;;;;;;;2.85;1.42;;;;;;;;;;5105761;28;20023;-90
2023/08/27 07:30:18;;;;;;;2.58;1.48;;;;;;;;;;5069440;28;20089;-91
2023/08/27 07:32:44;;;;;;;2.47;1.15;;;;;;;;;;5075269;28;20043;-90
2023/08/27 07:35:10;;;;;;;7.88;1.77;;;;;;;;;;5067783;28;20017;-88
2023/08/27 07:37:36;;;;;;;7.60;1.67;;;;;;;;;;5103311;28;20020;-91
2023/08/27 07:40:03;;;;;;;4.15;1.38;;;;;;;;;;5068880;28;20019;-91
2023/08/27 07:42:29;;;;;;;2.20;1.45;;;;;;;;;;5068535;28;20024;-94
2023/08/27 07:44:55;;;;;;;1.98;1.33;;;;;;;;;;5102593;28;20383;-92
2023/08/27 07:47:21;;;;;;;2.42;1.60;;;;;;;;;;5070754;28;20027;-91
2023/08/27 07:49:47;;;;;;;3.65;1.23;;;;;;;;;;5069086;28;20480;-90
2023/08/27 07:52:13;;;;;;;2.88;1.58;;;;;;;;;;5102040;28;20032;-91
2023/08/27 07:54:39;;;;;;;2.78;1.33;;;;;;;;;;5064743;28;20017;-93
2023/08/27 07:57:05;;;;;;;2.42;1.48;;;;;;;;;;5099204;28;20499;-93
2023/08/27 07:59:31;;;;;;;3.80;1.40;;;;;;;;;;5102088;28;20016;-91
2023/08/27 08:01:57;;;;;;;6.15;1.83;;;;;;;;;;5064693;28;20031;-92
2023/08/27 08:04:23;;;;;;;1.83;1.50;;;;;;;;;;5086455;28;20055;-91
2023/08/27 08:06:49;;;;;;;2.78;1.30;;;;;;;;;;5069169;28;20028;-89
2023/08/27 08:09:15;;;;;;;6.90;1.85;;;;;;;;;;5065157;28;20056;-93
2023/08/27 08:11:41;;;;;;;1.58;1.30;;;;;;;;;;5102166;27;20032;-93
2023/08/27 08:14:07;;;;;;;2.47;1.52;;;;;;;;;;5065082;28;20394;-90
2023/08/27 08:16:33;;;;;;;2.47;1.52;;;;;;;;;;5066710;28;20473;-91
2023/08/27 08:18:59;;;;;;;4.07;1.70;;;;;;;;;;5068693;28;20032;-91
2023/08/27 08:21:25;;;;;;;3.03;1.50;;;;;;;;;;5069092;28;20094;-90
2023/08/27 08:23:51;;;;;;;4.25;1.65;;;;;;;;;;5071465;28;20020;-91
2023/08/27 08:26:18;;;;;;;1.90;1.35;;;;;;;;;;5100343;28;20025;-91
2023/08/27 08:28:44;;;;;;;1.92;1.40;;;;;;;;;;5068550;28;20020;-88
2023/08/27 08:31:10;;;;;;;3.70;1.40;;;;;;;;;;5092062;28;20051;-88
2023/08/27 08:33:36;;;;;;;2.67;1.55;;;;;;;;;;5083562;28;20036;-89
2023/08/27 08:36:02;;;;;;;5.63;1.52;;;;;;;;;;5090374;28;20020;-88
2023/08/27 08:38:28;;;;;;;1.40;1.30;;;;;;;;;;5099200;28;20025;-92
2023/08/27 08:40:58;;;;;;;1.80;1.13;;;;;;;;;;5068100;28;20510;-90
2023/08/27 08:43:24;;;;;;;3.80;1.38;;;;;;;;;;5099512;28;20039;-91
2023/08/27 08:46:03;;;;;;;2.05;1.60;;;;;;;;;;5084978;28;20059;-91
2023/08/27 08:48:31;;;;;;;1.25;1.00;;;;;;;;;;5102846;28;20043;-91
2023/08/27 08:50:58;;;;;;;3.70;1.30;;;;;;;;;;5076929;28;20032;-90
2023/08/27 08:53:25;;;;;;;4.20;2.65;;;;;;;;;;5105189;28;20031;-90
2023/08/27 08:55:57;;;;;;;3.78;1.40;;;;;;;;;;5073373;28;20017;-91
2023/08/27 08:58:24;;;;;;;1.90;1.55;;;;;;;;;;5072535;28;20020;-90
2023/08/27 09:00:50;;;;;;;2.33;1.50;;;;;;;;;;5075663;28;20024;-89
2023/08/27 09:03:17;;;;;;;4.88;1.42;;;;;;;;;;5071860;28;20028;-94
2023/08/27 09:05:44;;;;;;;4.07;2.03;;;;;;;;;;5077133;28;20115;-92
2023/08/27 09:08:11;;;;;;;1.92;1.20;;;;;;;;;;5073800;28;20031;-93
2023/08/27 09:10:38;;;;;;;1.85;1.20;;;;;;;;;;5102312;28;20029;-88
2023/08/27 09:13:05;;;;;;;3.13;1.48;;;;;;;;;;5070697;28;20054;-94
2023/08/27 09:15:31;;;;;;;6.43;1.17;;;;;;;;;;5105572;27;20052;-92
2023/08/27 09:17:57;;;;;;;2.47;1.20;;;;;;;;;;5073224;28;20023;-93
2023/08/27 09:20:24;;;;;;;3.33;1.58;;;;;;;;;;5089876;28;20488;-92
2023/08/27 09:22:50;;;;;;;3.22;1.85;;;;;;;;;;5080311;28;20036;-94
2023/08/27 09:25:17;;;;;;;1.58;1.30;;;;;;;;;;5070240;28;20027;-89
2023/08/27 09:27:43;;;;;;;3.50;1.65;;;;;;;;;;5087312;28;20477;-90
2023/08/27 09:30:10;;;;;;;2.40;1.80;;;;;;;;;;5090845;28;20024;-93
2023/08/27 09:32:36;;;;;;;3.72;1.70;;;;;;;;;;5081000;28;20435;-91
2023/08/27 09:35:05;;;;;;;2.42;1.50;;;;;;;;;;5068779;28;20047;-93
2023/08/27 09:37:41;;;;;;;8.77;1.70;;;;;;;;;;5068703;28;20028;-93
2023/08/27 09:40:08;;;;;;;1.98;1.15;;;;;;;;;;5080168;28;20099;-94
2023/08/27 09:42:34;;;;;;;2.13;1.30;;;;;;;;;;5086490;28;20086;-94
2023/08/27 09:45:00;;;;;;;2.92;1.92;;;;;;;;;;5079957;28;20028;-93
2023/08/27 09:47:33;;;;;;;3.78;2.10;;;;;;;;;;5074548;28;20024;-92
2023/08/27 09:50:00;;;;;;;3.58;1.80;;;;;;;;;;5077371;28;20028;-95
2023/08/27 09:52:26;;;;;;;3.70;2.00;;;;;;;;;;5091417;28;20188;-92
2023/08/27 09:54:52;;;;;;;2.65;1.52;;;;;;;;;;5100062;27;20012;-93
2023/08/27 09:57:19;;;;;;;1.98;1.30;;;;;;;;;;5110624;28;20030;-93
2023/08/27 09:59:46;;;;;;;4.30;1.40;;;;;;;;;;5096966;28;20031;-90
2023/08/27 10:02:14;;;;;;;3.92;1.90;;;;;;;;;;5109022;28;20099;-93
2023/08/27 10:04:50;;;;;;;1.92;1.42;;;;;;;;;;5090708;28;20023;-93
2023/08/27 10:07:16;;;;;;;4.43;1.63;;;;;;;;;;5089055;28;20114;-92
2023/08/27 10:09:43;;;;;;;2.45;1.40;;;;;;;;;;5092488;28;20027;-93
2023/08/27 10:12:11;;;;;;;2.95;1.40;;;;;;;;;;5095945;28;20104;-93
2023/08/27 10:14:41;;;;;;;2.40;1.50;;;;;;;;;;5092844;28;20364;-89
2023/08/27 10:17:07;;;;;;;3.72;1.80;;;;;;;;;;5087759;28;20024;-94
2023/08/27 10:19:36;;;;;;;2.75;1.17;;;;;;;;;;5097938;28;20035;-90
2023/08/27 10:22:03;;;;;;;2.97;1.50;;;;;;;;;;5093077;28;20088;-88
2023/08/27 10:24:29;;;;;;;2.92;1.38;;;;;;;;;;5091552;28;20019;-88
2023/08/27 10:26:58;;;;;;;4.10;1.58;;;;;;;;;;5109393;28;20476;-90
2023/08/27 10:29:24;;;;;;;3.85;1.50;;;;;;;;;;5089554;28;20410;-90
2023/08/27 10:31:50;;;;;;;1.90;1.15;;;;;;;;;;5091177;28;20456;-91
2023/08/27 10:34:17;;;;;;;4.55;1.27;;;;;;;;;;5085430;28;20063;-92
2023/08/27 10:36:43;;;;;;;3.78;1.73;;;;;;;;;;5106230;28;20528;-91
2023/08/27 10:39:10;;;;;;;1.98;1.40;;;;;;;;;;5088210;28;20016;-89
2023/08/27 10:41:36;;;;;;;2.42;1.52;;;;;;;;;;5100712;28;20103;-92
2023/08/27 10:44:02;;;;;;;4.45;1.65;;;;;;;;;;5087250;28;20107;-89
2023/08/27 10:46:28;;;;;;;1.70;1.50;;;;;;;;;;5088570;28;20074;-90
2023/08/27 10:48:55;;;;;;;2.72;1.80;;;;;;;;;;5087497;28;20472;-91
2023/08/27 10:51:21;;;;;;;3.03;1.60;;;;;;;;;;5090908;28;20047;-90
2023/08/27 10:53:50;;;;;;;2.75;1.33;;;;;;;;;;5087891;28;20017;-91
2023/08/27 10:56:26;;;;;;;4.43;1.30;;;;;;;;;;5107459;28;20057;-89
2023/08/27 10:58:52;;;;;;;2.50;1.23;;;;;;;;;;5087795;28;20067;-94
2023/08/27 11:01:20;;;;;;;3.28;1.75;;;;;;;;;;5092818;28;20027;-90
2023/08/27 11:04:00;;;;;;;1.60;1.50;;;;;;;;;;5087758;28;20062;-92
2023/08/27 11:06:46;;;;;;;1.75;1.27;;;;;;;;;;5107453;28;20095;-92
2023/08/27 11:09:14;;;;;;;2.22;1.20;;;;;;;;;;5091542;28;20031;-92
2023/08/27 11:11:41;;;;;;;2.30;1.50;;;;;;;;;;5088231;28;20019;-92
2023/08/27 11:14:11;;;;;;;2.15;1.23;;;;;;;;;;5086566;28;20024;-90
2023/08/27 11:16:44;;;;;;;1.70;1.20;;;;;;;;;;5088561;28;20106;-90
2023/08/27 11:19:11;;;;;;;1.58;1.02;;;;;;;;;;5097485;28;20030;-90
2023/08/27 11:21:47;;;;;;;4.30;1.75;;;;;;;;;;5088469;28;20051;-93
2023/08/27 11:24:23;;;;;;;2.95;1.60;;;;;;;;;;5085663;28;20065;-90
2023/08/27 11:26:50;;;;;;;6.40;1.42;;;;;;;;;;5090716;28;20023;-92
2023/08/27 11:29:17;;;;;;;3.00;1.45;;;;;;;;;;5090837;28;20026;-92
2023/08/27 11:31:43;;;;;;;4.22;1.65;;;;;;;;;;5087089;28;20388;-93
2023/08/27 11:34:16;;;;;;;2.97;1.48;;;;;;;;;;5092161;28;20103;-90
2023/08/27 11:36:44;;;;;;;1.92;1.27;;;;;;;;;;5087031;28;20032;-89
2023/08/27 11:39:11;;;;;;;2.63;1.42;;;;;;;;;;5094899;28;20024;-91
2023/08/27 11:41:37;;;;;;;2.72;1.20;;;;;;;;;;5089427;28;20059;-89
2023/08/27 11:44:04;;;;;;;3.47;1.75;;;;;;;;;;5088411;28;20020;-89
2023/08/27 11:46:30;;;;;;;3.50;1.85;;;;;;;;;;5093199;28;20032;-89
2023/08/27 11:48:56;;;;;;;3.58;1.98;;;;;;;;;;5091777;28;20023;-87
2023/08/27 11:51:22;;;;;;;7.85;2.08;;;;;;;;;;5109087;28;20016;-87
2023/08/27 11:53:50;;;;;;;7.80;2.85;;;;;;;;;;5085730;28;20020;-90
2023/08/27 11:56:17;;;;;;;6.30;2.90;;;;;;;;;;5088610;28;20019;-88
2023/08/27 11:58:44;;;;;;;2.83;1.85;;;;;;;;;;5085547;28;20107;-92
2023/08/27 12:01:14;;;;;;;3.33;1.70;;;;;;;;;;5088429;28;20019;-90
2023/08/27 12:03:40;;;;;;;;;;;;;;;;;;5086764;28;20011;-86
2023/08/27 12:06:06;;;;;;;2.92;1.40;;;;;;;;;;5125962;27;19912;-90
2023/08/27 12:08:35;;;;;;;4.43;1.77;;;;;;;;;;5089528;28;20051;-93
2023/08/27 12:11:02;;;;;;;3.00;1.67;;;;;;;;;;5087939;28;20023;-89
2023/08/27 12:13:28;;;;;;;3.20;1.70;;;;;;;;;;5107434;28;20030;-85
2023/08/27 12:15:54;;;;;;;4.28;1.30;;;;;;;;;;5086718;28;20110;-87
2023/08/27 12:18:20;;;;;;;6.32;1.83;;;;;;;;;;5105777;28;20024;-90
2023/08/27 12:20:50;;;;;;;2.45;1.50;;;;;;;;;;5093689;28;20024;-86
2023/08/27 12:23:16;;;;;;;2.80;1.85;;;;;;;;;;5091475;28;20111;-87
2023/08/27 12:25:45;;;;;;;5.00;1.50;;;;;;;;;;5088320;28;20488;-90
2023/08/27 12:28:11;;;;;;;2.22;1.35;;;;;;;;;;5086877;28;20028;-88
2023/08/27 12:30:37;;;;;;;1.75;1.13;;;;;;;;;;5088636;28;20066;-91
2023/08/27 12:43:47;;;;;;;2.20;1.00;;;;;;;;;;6303081;22;1367473;-87
2023/08/27 12:46:13;;;;;;;1.42;0.93;;;;;;;;;;6315394;22;20007;-89
2023/08/27 12:48:39;;;;;;;5.35;1.02;;;;;;;;;;6315889;22;20466;-87
2023/08/27 12:51:05;;;;;;;1.83;1.08;;;;;;;;;;6315516;22;20007;-85
2023/08/27 12:53:31;;;;;;;1.20;0.90;;;;;;;;;;6315398;22;20041;-88
2023/08/27 12:55:56;;;;;;;2.25;0.95;;;;;;;;;;6315227;22;20007;-88
2023/08/27 12:58:23;;;;;;;1.75;1.13;;;;;;;;;;6315423;22;20007;-87
2023/08/27 13:00:49;;;;;;;1.00;0.90;;;;;;;;;;6315653;22;20432;-91
2023/08/27 13:03:15;;;;;;;1.02;0.93;;;;;;;;;;6316008;22;19999;-91
2023/08/27 13:05:41;;;;;;;1.25;0.82;;;;;;;;;;6315772;22;20010;-88
2023/08/27 13:08:07;;;;;;;1.27;1.10;;;;;;;;;;6315661;22;20007;-89
2023/08/27 13:10:33;;;;;;;1.17;1.00;;;;;;;;;;6315440;22;20003;-89
2023/08/27 13:12:59;;;;;;;3.35;0.73;;;;;;;;;;6315404;22;20015;-90
2023/08/27 13:15:25;;;;;;;1.60;0.90;;;;;;;;;;6316032;22;20003;-92
2023/08/27 13:17:51;;;;;;;0.93;0.73;;;;;;;;;;6315896;22;20081;-92
2023/08/27 13:20:17;;;;;;;3.17;0.95;;;;;;;;;;6315739;22;20431;-89
2023/08/27 13:22:43;;;;;;;2.40;1.33;;;;;;;;;;6316022;22;20010;-93
2023/08/27 13:25:11;;;;;;;1.83;1.38;;;;;;;;;;6315960;22;20007;-91
2023/08/27 13:27:37;;;;;;;1.45;0.90;;;;;;;;;;6315475;22;20463;-93
2023/08/27 13:30:03;;;;;;;1.35;1.05;;;;;;;;;;6315392;22;20003;-88
2023/08/27 13:32:29;;;;;;;3.15;0.82;;;;;;;;;;6315431;22;20023;-92
2023/08/27 13:34:55;;;;;;;1.85;1.10;;;;;;;;;;6315779;22;20003;-91
2023/08/27 13:37:21;;;;;;;0.80;0.70;;;;;;;;;;6315115;22;20003;-89
2023/08/27 13:39:47;;;;;;;0.77;0.77;;;;;;;;;;6314739;22;20007;-89
2023/08/27 13:42:13;;;;;;;0.77;0.75;;;;;;;;;;6319994;22;20006;-89
2023/08/27 13:44:39;;;;;;;0.75;0.75;;;;;;;;;;6311702;22;20086;-91
2023/08/27 13:47:32;;;;;;;1.02;0.80;;;;;;;;;;6309172;22;20038;-89
2023/08/27 13:49:58;;;;;;;1.83;1.08;;;;;;;;;;6308660;22;20101;-93
2023/08/27 13:52:24;;;;;;;3.17;1.00;;;;;;;;;;6309015;22;20011;-91
2023/08/27 13:54:51;;;;;;;1.13;0.80;;;;;;;;;;6308778;22;20011;-91
2023/08/27 13:57:17;;;;;;;1.67;1.08;;;;;;;;;;6311240;22;20440;-94
2023/08/27 13:59:43;;;;;;;1.05;0.90;;;;;;;;;;6307809;22;20424;-92
2023/08/27 14:02:09;;;;;;;1.67;1.02;;;;;;;;;;6308396;22;20083;-91
2023/08/27 14:04:41;;;;;;;0.70;0.70;;;;;;;;;;6310380;22;20003;-93
2023/08/27 14:07:07;;;;;;;1.13;0.70;;;;;;;;;;6310893;22;19999;-92
2023/08/27 14:09:33;;;;;;;1.90;0.95;;;;;;;;;;6307724;22;20007;-95
2023/08/27 14:11:59;;;;;;;1.05;0.80;;;;;;;;;;6308740;22;20015;-89
2023/08/27 14:14:25;;;;;;;1.77;0.80;;;;;;;;;;6308418;22;20011;-91
2023/08/27 14:16:51;;;;;;;1.75;0.93;;;;;;;;;;6308787;22;20563;-89
2023/08/27 14:19:17;;;;;;;1.05;0.93;;;;;;;;;;6308146;22;20090;-89
2023/08/27 14:21:44;;;;;;;2.40;0.88;;;;;;;;;;6309360;22;20010;-95
2023/08/27 14:24:11;;;;;;;3.42;0.80;;;;;;;;;;6309514;22;20007;-94
2023/08/27 14:26:38;;;;;;;1.08;0.90;;;;;;;;;;6311107;22;20007;-92
2023/08/27 14:29:04;;;;;;;1.55;0.98;;;;;;;;;;6309479;22;20078;-89
2023/08/27 14:31:30;;;;;;;2.10;0.75;;;;;;;;;;6307819;22;20016;-90
2023/08/27 14:34:06;;;;;;;0.95;0.90;;;;;;;;;;6307938;22;20133;-89
2023/08/27 14:36:32;;;;;;;0.93;0.82;;;;;;;;;;6308458;22;20011;-90
2023/08/27 14:38:58;;;;;;;0.98;0.80;;;;;;;;;;6307929;22;20004;-93
2023/08/27 14:41:28;;;;;;;1.38;0.90;;;;;;;;;;6307630;22;20483;-92
2023/08/27 14:43:54;;;;;;;0.98;0.80;;;;;;;;;;6307850;22;20336;-92
2023/08/27 14:46:23;;;;;;;1.27;0.85;;;;;;;;;;6308079;22;20011;-91
2023/08/27 14:48:49;;;;;;;1.05;0.80;;;;;;;;;;6307854;22;20010;-93
2023/08/27 14:51:16;;;;;;;1.27;0.82;;;;;;;;;;6308924;22;20082;-94
2023/08/27 14:53:42;;;;;;;1.08;0.98;;;;;;;;;;6307523;22;20007;-89
2023/08/27 14:56:08;;;;;;;2.70;1.00;;;;;;;;;;6306952;22;20031;-93
2023/08/27 14:58:34;;;;;;;1.73;0.88;;;;;;;;;;6307639;22;20029;-91
2023/08/27 15:01:00;;;;;;;0.95;0.85;;;;;;;;;;6306876;22;20026;-88
2023/08/27 15:03:26;;;;;;;1.15;0.85;;;;;;;;;;6306065;22;19999;-93
2023/08/27 15:05:52;;;;;;;1.45;1.10;;;;;;;;;;6307309;22;20003;-92
2023/08/27 15:08:18;;;;;;;1.05;0.95;;;;;;;;;;6307210;22;20010;-89
2023/08/27 15:10:44;;;;;;;1.98;0.82;;;;;;;;;;6306250;22;20007;-91
2023/08/27 15:13:10;;;;;;;1.40;0.80;;;;;;;;;;6305730;22;20610;-90
2023/08/27 15:15:36;;;;;;;1.52;1.00;;;;;;;;;;6306073;22;20003;-90
2023/08/27 15:18:02;;;;;;;1.77;0.90;;;;;;;;;;6307780;22;20003;-90
2023/08/27 15:20:28;;;;;;;0.60;0.60;;;;;;;;;;6305324;22;20018;-89
2023/08/27 15:22:54;;;;;;;0.77;0.75;;;;;;;;;;6306279;22;20010;-89
2023/08/27 15:25:20;;;;;;;2.47;0.90;;;;;;;;;;6304879;22;20003;-89
2023/08/27 15:27:46;;;;;;;0.80;0.80;;;;;;;;;;6307642;22;20077;-89
2023/08/27 15:30:12;;;;;;;3.40;0.85;;;;;;;;;;6306814;22;20006;-89
2023/08/27 15:32:38;;;;;;;1.42;0.90;;;;;;;;;;6306080;22;20015;-91
2023/08/27 15:35:05;;;;;;;1.40;0.90;;;;;;;;;;6306295;22;20133;-91
2023/08/27 15:37:31;;;;;;;1.33;0.90;;;;;;;;;;6306176;22;20002;-91
2023/08/27 15:39:57;;;;;;;2.03;0.82;;;;;;;;;;6306291;22;20049;-91
2023/08/27 15:42:27;;;;;;;4.70;1.70;;;;;;;;;;6305486;22;20030;-92